Time;durP1;ratioP1;P1;durP2;ratioP2;P2;SDS_P1;SDS_P2;PMS_P1;PMS_P2;Temp;Humidity;BMP_temperature;BMP_pressure;BME280_temperature;BME280_humidity;BME280_pressure;Samples;Min_cycle;Max_cycle;Signal;HPM_P1;HPM_P2
2022/05/18 00:01:56;;;;;;;3.50;3.10;;;19.50;99.90;;;;;;5010556;28;20284;-75
2022/05/18 00:04:24;;;;;;;8.60;4.00;;;19.70;99.90;;;;;;5012696;28;20240;-74
2022/05/18 00:06:52;;;;;;;6.45;3.45;;;19.60;99.90;;;;;;5008961;28;20714;-75
2022/05/18 00:09:20;;;;;;;5.30;3.30;;;19.50;99.90;;;;;;5008474;28;20260;-75
2022/05/18 00:11:50;;;;;;;3.42;2.85;;;19.50;99.90;;;;;;5011708;28;20742;-75
2022/05/18 00:14:17;;;;;;;5.47;3.35;;;19.60;99.90;;;;;;5009854;28;20201;-74
2022/05/18 00:16:47;;;;;;;4.25;3.10;;;19.70;99.90;;;;;;5011132;28;20221;-75
2022/05/18 00:19:15;;;;;;;5.03;4.05;;;19.70;99.90;;;;;;5011367;28;20201;-75
2022/05/18 00:21:44;;;;;;;2.67;2.47;;;19.70;99.90;;;;;;5009672;28;20284;-75
2022/05/18 00:24:13;;;;;;;3.40;2.97;;;19.60;99.90;;;;;;5009148;28;20693;-75
2022/05/18 00:26:41;;;;;;;5.20;3.00;;;19.70;99.90;;;;;;5009807;28;20221;-75
2022/05/18 00:29:10;;;;;;;3.58;2.80;;;19.70;99.90;;;;;;5011604;28;20236;-75
2022/05/18 00:31:38;;;;;;;3.75;3.42;;;19.80;99.90;;;;;;5009665;28;20288;-76
2022/05/18 00:34:06;;;;;;;5.22;3.45;;;19.70;99.90;;;;;;5010485;28;20255;-76
2022/05/18 00:36:34;;;;;;;5.57;3.40;;;19.70;99.90;;;;;;5010476;28;20317;-76
2022/05/18 00:39:03;;;;;;;3.50;3.20;;;19.70;99.90;;;;;;5009986;28;20288;-77
2022/05/18 00:41:30;;;;;;;4.75;3.53;;;19.80;99.90;;;;;;5011242;28;20320;-74
2022/05/18 00:43:59;;;;;;;5.22;3.20;;;19.80;99.90;;;;;;5010850;28;20235;-77
2022/05/18 00:46:28;;;;;;;4.75;3.13;;;19.80;99.90;;;;;;5009323;28;20260;-76
2022/05/18 00:48:57;;;;;;;3.33;3.03;;;19.70;99.90;;;;;;5011057;28;20205;-75
2022/05/18 00:51:29;;;;;;;4.55;4.15;;;19.70;99.90;;;;;;5008581;28;20197;-76
2022/05/18 00:54:01;;;;;;;5.50;3.70;;;19.60;99.90;;;;;;5007390;28;20236;-77
2022/05/18 00:56:35;;;;;;;4.13;3.47;;;19.70;99.90;;;;;;5010522;28;20275;-77
2022/05/18 00:59:08;;;;;;;3.88;3.50;;;19.70;99.90;;;;;;5008957;28;20279;-75
2022/05/18 01:01:38;;;;;;;5.00;3.50;;;19.70;99.90;;;;;;5007360;28;20229;-76
2022/05/18 01:04:10;;;;;;;4.03;3.60;;;19.60;99.90;;;;;;5009545;28;20205;-74
2022/05/18 01:06:43;;;;;;;3.97;3.15;;;19.60;99.90;;;;;;5005600;28;20233;-76
2022/05/18 01:09:16;;;;;;;3.40;3.20;;;19.60;99.90;;;;;;5005691;28;20710;-76
2022/05/18 01:11:45;;;;;;;4.35;3.33;;;19.50;99.90;;;;;;5005744;28;20230;-76
2022/05/18 01:14:16;;;;;;;6.60;4.15;;;19.50;99.90;;;;;;5006422;28;20288;-74
2022/05/18 01:16:46;;;;;;;3.33;3.13;;;19.50;99.90;;;;;;5008760;28;20316;-74
2022/05/18 01:19:20;;;;;;;4.45;4.13;;;19.60;99.90;;;;;;5007834;28;20201;-74
2022/05/18 01:22:09;;;;;;;5.75;3.50;;;19.50;99.90;;;;;;5009051;28;20248;-74
2022/05/18 01:24:46;;;;;;;5.13;3.50;;;19.40;99.90;;;;;;5006802;28;20232;-74
2022/05/18 01:27:16;;;;;;;5.35;3.70;;;19.40;99.90;;;;;;5006246;28;20233;-75
2022/05/18 01:29:43;;;;;;;6.50;3.80;;;19.40;99.90;;;;;;5009033;28;20293;-75
2022/05/18 01:32:16;;;;;;;3.88;3.58;;;19.30;99.90;;;;;;5009644;28;20251;-74
2022/05/18 01:34:43;;;;;;;3.47;3.17;;;19.30;99.90;;;;;;5010120;28;20256;-74
2022/05/18 01:37:13;;;;;;;5.75;3.47;;;19.10;99.90;;;;;;5009560;28;20248;-73
2022/05/18 01:39:47;;;;;;;4.03;3.72;;;19.10;99.90;;;;;;5009441;28;20205;-75
2022/05/18 01:42:24;;;;;;;5.85;4.47;;;19.10;99.90;;;;;;5009420;28;20629;-74
2022/05/18 01:44:52;;;;;;;3.80;3.50;;;19.10;99.90;;;;;;5008383;28;20201;-75
2022/05/18 01:47:20;;;;;;;4.55;4.00;;;19.00;99.90;;;;;;5008290;28;20265;-74
2022/05/18 01:49:50;;;;;;;6.28;4.05;;;19.00;99.90;;;;;;5009064;28;20232;-75
2022/05/18 01:52:18;;;;;;;4.85;4.28;;;18.80;99.90;;;;;;5008699;28;20241;-74
2022/05/18 01:54:48;;;;;;;5.70;4.60;;;18.50;99.90;;;;;;5008756;28;20636;-74
2022/05/18 01:57:17;;;;;;;4.63;3.95;;;18.50;99.90;;;;;;5007495;28;20303;-75
2022/05/18 01:59:45;;;;;;;4.25;3.88;;;18.50;99.90;;;;;;5010059;28;20272;-74
2022/05/18 02:02:14;;;;;;;4.40;4.00;;;18.60;99.90;;;;;;5008286;28;20244;-74
2022/05/18 02:04:43;;;;;;;4.78;3.60;;;18.60;99.90;;;;;;5009879;28;20698;-74
2022/05/18 02:07:13;;;;;;;4.07;3.78;;;18.50;99.90;;;;;;5010840;28;20849;-75
2022/05/18 02:09:42;;;;;;;6.13;3.72;;;18.40;99.90;;;;;;5009006;28;20288;-75
2022/05/18 02:12:11;;;;;;;5.15;4.65;;;18.50;99.90;;;;;;5008084;28;20293;-75
2022/05/18 02:14:40;;;;;;;6.10;4.45;;;18.30;99.90;;;;;;5009648;28;20213;-75
2022/05/18 02:17:08;;;;;;;4.50;4.10;;;18.10;99.90;;;;;;5010740;28;20239;-75
2022/05/18 02:19:36;;;;;;;4.28;3.85;;;18.10;99.90;;;;;;5009225;28;20228;-73
2022/05/18 02:22:04;;;;;;;3.63;3.33;;;18.00;99.90;;;;;;5009164;28;20245;-75
2022/05/18 02:24:32;;;;;;;4.75;3.75;;;17.90;99.90;;;;;;5009890;28;20247;-74
2022/05/18 02:27:00;;;;;;;5.32;4.82;;;17.90;99.90;;;;;;5007852;28;20216;-74
2022/05/18 02:29:29;;;;;;;4.10;3.80;;;17.90;99.90;;;;;;5008502;28;20285;-75
2022/05/18 02:31:58;;;;;;;4.63;4.10;;;17.90;99.90;;;;;;5010186;28;20256;-75
2022/05/18 02:34:26;;;;;;;4.38;3.88;;;17.90;99.90;;;;;;5006592;28;20627;-75
2022/05/18 02:36:54;;;;;;;5.93;4.32;;;18.00;99.90;;;;;;5008320;28;20634;-75
2022/05/18 02:39:22;;;;;;;5.15;3.80;;;18.00;99.90;;;;;;5004393;28;20232;-75
2022/05/18 02:41:50;;;;;;;4.55;4.07;;;18.10;99.90;;;;;;5008835;28;20221;-75
2022/05/18 02:44:18;;;;;;;5.75;4.80;;;18.10;99.90;;;;;;5002557;28;20190;-76
2022/05/18 02:46:47;;;;;;;8.65;4.40;;;18.10;99.90;;;;;;5007427;28;20241;-76
2022/05/18 02:49:16;;;;;;;5.47;3.97;;;18.10;99.90;;;;;;5004472;28;20197;-77
2022/05/18 02:51:44;;;;;;;3.40;3.17;;;18.10;99.90;;;;;;5004871;28;20248;-76
2022/05/18 02:57:00;;;;;;;4.47;4.10;;;18.40;99.90;;;;;;5008606;28;20320;-76
2022/05/18 02:59:28;;;;;;;4.30;3.90;;;18.40;99.90;;;;;;5007450;28;20256;-76
2022/05/18 03:01:56;;;;;;;4.60;4.20;;;18.60;99.90;;;;;;5010098;28;20283;-75
2022/05/18 03:04:25;;;;;;;3.60;3.28;;;18.70;99.90;;;;;;5012843;28;20208;-76
2022/05/18 03:06:53;;;;;;;4.93;4.45;;;18.70;99.90;;;;;;5010681;28;20229;-76
2022/05/18 03:09:21;;;;;;;6.78;3.78;;;18.70;99.90;;;;;;5033937;23;20245;-64
2022/05/18 03:11:50;;;;;;;5.55;3.92;;;18.60;99.90;;;;;;5012476;28;20693;-63
2022/05/18 03:14:18;;;;;;;9.15;4.53;;;18.60;99.90;;;;;;5011950;28;20285;-64
2022/05/18 03:16:46;;;;;;;4.22;3.40;;;18.50;99.90;;;;;;5007185;28;20749;-63
2022/05/18 03:19:15;;;;;;;4.50;3.60;;;18.50;99.90;;;;;;5007915;28;20313;-64
2022/05/18 03:24:30;;;;;;;4.30;3.53;;;18.70;99.90;;;;;;5013111;28;20197;-64
2022/05/18 03:26:58;;;;;;;4.72;4.18;;;18.70;99.90;;;;;;5009903;28;20230;-64
2022/05/18 03:29:26;;;;;;;3.72;3.42;;;18.70;99.90;;;;;;5011174;28;20248;-64
2022/05/18 03:31:53;;;;;;;4.38;3.60;;;18.70;99.90;;;;;;5013410;28;20288;-64
2022/05/18 03:34:22;;;;;;;4.47;4.07;;;18.60;99.90;;;;;;5012675;28;20284;-64
2022/05/18 03:36:51;;;;;;;4.70;4.20;;;18.60;99.90;;;;;;5010916;28;20243;-65
2022/05/18 03:39:19;;;;;;;3.78;3.47;;;18.80;99.90;;;;;;5001884;28;20302;-65
2022/05/18 03:41:47;;;;;;;5.40;4.07;;;18.90;99.90;;;;;;5010017;28;20312;-64
2022/05/18 03:44:14;;;;;;;4.32;3.92;;;19.00;99.90;;;;;;5005828;28;20640;-64
2022/05/18 03:46:42;;;;;;;4.82;4.25;;;19.20;99.90;;;;;;5009922;28;20252;-64
2022/05/18 03:49:10;;;;;;;3.85;3.17;;;19.10;99.90;;;;;;5005853;28;20225;-63
2022/05/18 03:51:38;;;;;;;4.18;3.80;;;19.10;99.90;;;;;;5007300;28;20259;-64
2022/05/18 03:54:07;;;;;;;4.90;3.65;;;19.10;99.90;;;;;;5011836;28;20263;-65
2022/05/18 03:56:35;;;;;;;4.78;4.05;;;19.10;99.90;;;;;;5003271;28;20252;-63
2022/05/18 03:59:03;;;;;;;4.25;3.50;;;19.00;99.90;;;;;;5008579;28;20225;-66
2022/05/18 04:01:31;;;;;;;4.85;3.97;;;19.10;99.90;;;;;;5012908;28;20241;-64
2022/05/18 04:03:59;;;;;;;4.22;3.00;;;19.20;99.90;;;;;;5011817;28;20197;-64
2022/05/18 04:06:27;;;;;;;3.85;3.42;;;19.20;99.90;;;;;;5011292;28;20259;-64
2022/05/18 04:08:55;;;;;;;3.67;3.38;;;19.20;99.90;;;;;;5009315;28;20710;-64
2022/05/18 04:11:24;;;;;;;3.90;3.60;;;19.30;99.90;;;;;;5007193;28;20228;-67
2022/05/18 04:13:54;;;;;;;2.80;2.55;;;19.30;99.90;;;;;;5006200;28;20232;-64
2022/05/18 04:16:22;;;;;;;6.15;3.80;;;19.50;99.90;;;;;;5012120;28;20229;-65
2022/05/18 04:18:50;;;;;;;5.95;4.15;;;19.40;99.90;;;;;;5011173;28;20225;-64
2022/05/18 04:21:19;;;;;;;4.20;3.80;;;19.30;99.90;;;;;;5011146;28;20201;-64
2022/05/18 04:23:47;;;;;;;4.88;3.53;;;19.30;99.90;;;;;;5010455;28;20197;-64
2022/05/18 04:26:15;;;;;;;4.45;4.05;;;19.30;99.90;;;;;;5009997;28;20225;-64
2022/05/18 04:28:44;;;;;;;3.53;3.17;;;19.30;99.90;;;;;;5010944;28;20666;-64
2022/05/18 04:31:12;;;;;;;3.80;3.50;;;19.30;99.90;;;;;;5011381;28;20988;-63
2022/05/18 04:33:40;;;;;;;4.13;3.13;;;19.30;99.90;;;;;;5011062;28;20201;-64
2022/05/18 04:36:08;;;;;;;3.97;3.20;;;19.40;99.90;;;;;;5000597;28;20209;-64
2022/05/18 04:38:36;;;;;;;5.55;3.45;;;19.30;99.90;;;;;;4994475;28;21105;-68
2022/05/18 04:41:03;;;;;;;4.35;3.70;;;19.30;99.90;;;;;;4996433;28;20229;-66
2022/05/18 04:43:32;;;;;;;5.53;3.78;;;19.40;99.90;;;;;;4996351;28;20320;-70
2022/05/18 04:46:02;;;;;;;4.10;3.55;;;19.40;99.90;;;;;;4995075;28;20216;-69
2022/05/18 04:48:31;;;;;;;5.00;3.15;;;19.40;99.90;;;;;;4996922;28;21009;-66
2022/05/18 04:51:04;;;;;;;4.13;3.33;;;19.50;99.90;;;;;;4996236;28;21402;-64
2022/05/18 04:53:32;;;;;;;3.83;3.53;;;19.50;99.90;;;;;;4996879;28;20229;-65
2022/05/18 04:56:00;;;;;;;4.20;3.65;;;19.40;99.90;;;;;;4994206;28;20201;-69
2022/05/18 04:58:28;;;;;;;4.43;3.30;;;19.30;99.90;;;;;;4996842;28;20261;-65
2022/05/18 05:00:59;;;;;;;5.53;3.47;;;19.20;99.90;;;;;;4995659;28;20205;-64
2022/05/18 05:03:29;;;;;;;4.53;4.13;;;19.20;99.90;;;;;;4995923;28;20225;-64
2022/05/18 05:06:04;;;;;;;4.03;3.60;;;19.20;99.90;;;;;;4993751;28;20216;-69
2022/05/18 05:08:34;;;;;;;3.58;3.28;;;19.20;99.90;;;;;;4996298;28;20336;-65
2022/05/18 05:11:04;;;;;;;3.97;3.67;;;19.30;99.90;;;;;;4996482;28;20291;-67
2022/05/18 05:13:32;;;;;;;4.45;3.85;;;19.40;99.90;;;;;;4996178;28;20694;-66
2022/05/18 05:16:02;;;;;;;4.43;3.83;;;19.50;99.90;;;;;;4994002;28;20256;-66
2022/05/18 05:18:31;;;;;;;4.03;3.50;;;19.50;99.90;;;;;;4996071;28;20229;-66
2022/05/18 05:21:00;;;;;;;4.25;3.70;;;19.40;99.90;;;;;;4995002;28;20308;-65
2022/05/18 05:23:28;;;;;;;4.82;4.32;;;19.40;99.90;;;;;;4994404;28;20239;-64
2022/05/18 05:25:57;;;;;;;4.32;3.92;;;19.40;99.90;;;;;;4993993;28;20213;-64
2022/05/18 05:28:25;;;;;;;4.32;4.00;;;19.40;99.90;;;;;;4995094;28;20299;-64
2022/05/18 05:30:53;;;;;;;7.20;4.70;;;19.40;99.90;;;;;;4996087;28;20205;-64
2022/05/18 05:33:22;;;;;;;7.18;3.95;;;19.50;99.90;;;;;;4991314;28;21386;-67
2022/05/18 05:35:58;;;;;;;4.85;4.03;;;19.50;99.90;;;;;;4993616;28;20208;-65
2022/05/18 05:38:27;;;;;;;4.80;3.83;;;19.50;99.90;;;;;;4995570;28;20339;-64
2022/05/18 05:40:55;;;;;;;5.28;4.25;;;19.60;99.90;;;;;;4994686;28;20288;-64
2022/05/18 05:43:23;;;;;;;6.72;3.80;;;19.60;99.90;;;;;;4992574;28;20253;-65
2022/05/18 05:45:56;;;;;;;5.63;3.67;;;19.50;99.90;;;;;;4993559;28;20217;-64
2022/05/18 05:48:24;;;;;;;4.72;4.20;;;19.50;99.90;;;;;;4993717;28;20236;-64
2022/05/18 05:50:52;;;;;;;4.53;4.10;;;19.60;99.90;;;;;;4995465;28;20761;-64
2022/05/18 05:53:21;;;;;;;4.72;4.32;;;19.60;99.90;;;;;;4994834;28;20220;-67
2022/05/18 05:55:50;;;;;;;7.93;4.20;;;19.70;99.90;;;;;;4986833;28;20232;-65
2022/05/18 05:58:18;;;;;;;4.57;4.18;;;19.70;99.90;;;;;;5009244;28;20252;-65
2022/05/18 06:00:46;;;;;;;4.13;3.75;;;19.70;99.90;;;;;;5010941;28;20229;-64
2022/05/18 06:03:14;;;;;;;5.03;3.92;;;19.80;99.90;;;;;;5010406;28;20229;-65
2022/05/18 06:05:42;;;;;;;7.10;4.32;;;19.90;99.90;;;;;;5010738;28;20662;-64
2022/05/18 06:08:10;;;;;;;4.30;3.90;;;20.00;99.90;;;;;;5010601;28;20665;-64
2022/05/18 06:10:40;;;;;;;5.35;4.75;;;20.10;99.90;;;;;;5011088;28;20788;-63
2022/05/18 06:13:09;;;;;;;5.78;4.65;;;20.10;99.90;;;;;;5010724;28;20209;-65
2022/05/18 06:15:38;;;;;;;5.43;4.47;;;20.10;99.90;;;;;;5010912;28;20717;-65
2022/05/18 06:18:06;;;;;;;5.47;4.68;;;20.20;99.90;;;;;;5010218;28;20670;-65
2022/05/18 06:20:34;;;;;;;7.68;4.43;;;20.20;99.90;;;;;;5010545;28;20209;-65
2022/05/18 06:23:07;;;;;;;4.95;4.30;;;20.20;99.90;;;;;;5010008;28;20267;-65
2022/05/18 06:25:36;;;;;;;4.40;4.00;;;20.40;99.90;;;;;;5010749;28;20252;-64
2022/05/18 06:28:07;;;;;;;6.20;4.22;;;20.40;99.90;;;;;;5010835;28;20541;-65
2022/05/18 06:30:35;;;;;;;4.95;4.50;;;20.40;99.90;;;;;;5010931;28;20287;-64
2022/05/18 06:33:03;;;;;;;5.25;4.30;;;20.60;99.90;;;;;;5010274;28;20292;-65
2022/05/18 06:35:31;;;;;;;5.70;5.10;;;20.70;99.90;;;;;;5011699;28;20247;-65
2022/05/18 06:38:00;;;;;;;7.53;4.65;;;20.70;99.90;;;;;;5014726;28;20657;-65
2022/05/18 06:43:11;;;;;;;5.00;4.63;;;20.80;99.90;;;;;;5013423;28;20228;-65
2022/05/18 06:45:39;;;;;;;5.32;4.70;;;21.00;99.90;;;;;;5014626;28;20311;-64
2022/05/18 06:48:07;;;;;;;5.45;4.95;;;21.10;99.90;;;;;;5014496;28;20248;-64
2022/05/18 06:50:55;;;;;;;6.43;4.75;;;21.30;99.90;;;;;;5014628;28;20237;-65
2022/05/18 06:53:23;;;;;;;5.35;4.15;;;21.20;99.90;;;;;;5013969;28;20224;-64
2022/05/18 06:55:51;;;;;;;6.55;4.90;;;21.20;99.90;;;;;;5014559;28;20240;-65
2022/05/18 06:58:32;;;;;;;6.13;5.50;;;21.20;99.90;;;;;;4997021;28;20589;-65
2022/05/18 07:01:01;;;;;;;5.20;4.80;;;21.30;99.90;;;;;;5014406;28;20201;-65
2022/05/18 07:03:29;;;;;;;8.38;5.47;;;21.30;99.90;;;;;;5013605;28;20693;-64
2022/05/18 07:05:57;;;;;;;5.60;5.10;;;21.30;99.90;;;;;;5011719;28;20206;-64
2022/05/18 07:08:25;;;;;;;8.35;5.05;;;21.40;99.90;;;;;;5011879;28;20237;-64
2022/05/18 07:10:53;;;;;;;7.10;5.38;;;21.60;99.90;;;;;;5013810;28;20244;-65
2022/05/18 07:13:21;;;;;;;4.90;4.50;;;21.60;99.90;;;;;;5013622;28;20225;-66
2022/05/18 07:15:50;;;;;;;7.22;4.93;;;21.70;99.90;;;;;;5014122;28;20232;-65
2022/05/18 07:18:19;;;;;;;7.72;4.78;;;21.80;99.90;;;;;;5013913;28;20312;-64
2022/05/18 07:20:49;;;;;;;10.43;5.50;;;22.00;99.90;;;;;;5013829;28;20300;-67
2022/05/18 07:23:16;;;;;;;4.63;4.22;;;22.00;99.90;;;;;;5013436;28;20260;-65
2022/05/18 07:25:45;;;;;;;6.60;4.75;;;22.20;99.90;;;;;;5014019;28;20667;-65
2022/05/18 07:28:12;;;;;;;5.47;4.60;;;22.30;99.90;;;;;;5013748;28;20229;-65
2022/05/18 07:30:50;;;;;;;5.30;4.60;;;22.30;99.90;;;;;;5013971;28;20209;-64
2022/05/18 07:33:20;;;;;;;7.85;4.82;;;22.30;99.90;;;;;;5013421;28;20197;-65
2022/05/18 07:35:50;;;;;;;5.72;4.35;;;22.40;99.90;;;;;;5013879;28;20263;-65
2022/05/18 07:38:19;;;;;;;8.10;4.57;;;22.50;99.90;;;;;;5013582;28;20764;-65
2022/05/18 07:41:07;;;;;;;5.15;4.63;;;22.60;99.90;;;;;;5008083;28;20220;-65
2022/05/18 07:43:35;;;;;;;8.65;4.68;;;22.70;99.90;;;;;;5012810;28;20213;-65
2022/05/18 07:46:05;;;;;;;5.40;4.20;;;22.80;99.90;;;;;;5013594;28;20671;-64
2022/05/18 07:48:34;;;;;;;4.82;4.25;;;22.90;99.90;;;;;;5012795;28;20221;-65
2022/05/18 07:51:02;;;;;;;7.15;4.97;;;23.00;99.90;;;;;;5013165;28;20300;-65
2022/05/18 07:53:30;;;;;;;4.32;3.92;;;23.10;99.90;;;;;;5012844;28;20201;-65
2022/05/18 07:55:58;;;;;;;4.55;4.10;;;23.20;99.90;;;;;;5013291;28;20299;-64
2022/05/18 07:58:25;;;;;;;4.70;4.30;;;23.40;99.90;;;;;;5013324;28;20264;-65
2022/05/18 08:00:53;;;;;;;5.78;4.55;;;23.40;99.90;;;;;;5013161;28;20231;-65
2022/05/18 08:03:22;;;;;;;5.40;4.90;;;23.50;99.90;;;;;;5012758;28;20232;-65
2022/05/18 08:05:50;;;;;;;4.93;4.35;;;23.70;99.90;;;;;;5013098;28;20248;-65
2022/05/18 08:08:20;;;;;;;5.97;4.40;;;23.90;99.90;;;;;;5012697;28;20332;-67
2022/05/18 08:16:20;;;;;;;6.38;5.07;;;24.40;99.90;;;;;;5013016;28;20689;-65
2022/05/18 08:18:49;;;;;;;8.18;4.97;;;24.50;99.90;;;;;;5012711;28;20303;-65
2022/05/18 08:21:18;;;;;;;7.10;4.70;;;24.40;99.90;;;;;;5006043;28;20292;-65
2022/05/18 08:23:46;;;;;;;6.90;5.10;;;24.60;99.90;;;;;;5012211;28;20221;-64
2022/05/18 08:26:20;;;;;;;5.65;5.10;;;24.80;99.90;;;;;;5012852;28;20197;-66
2022/05/18 08:28:48;;;;;;;5.18;4.47;;;24.90;99.90;;;;;;5012524;28;20671;-65
2022/05/18 08:31:17;;;;;;;5.13;4.72;;;25.10;99.90;;;;;;5012704;28;20886;-65
2022/05/18 08:33:49;;;;;;;8.27;4.72;;;25.20;99.90;;;;;;5012142;28;20205;-65
2022/05/18 08:36:18;;;;;;;4.80;4.30;;;25.40;99.90;;;;;;5012384;28;20259;-65
2022/05/18 08:38:46;;;;;;;6.03;4.45;;;25.60;99.90;;;;;;5012185;28;20236;-65
2022/05/18 08:41:17;;;;;;;5.95;4.15;;;25.70;99.90;;;;;;5012421;28;20229;-65
2022/05/18 08:43:48;;;;;;;4.70;4.30;;;25.80;99.90;;;;;;5011744;28;20284;-66
2022/05/18 08:46:19;;;;;;;4.80;3.65;;;26.10;99.90;;;;;;5012102;28;20209;-65
2022/05/18 08:48:54;;;;;;;6.93;4.50;;;26.40;99.90;;;;;;5012728;28;20233;-65
2022/05/18 08:51:41;;;;;;;5.07;4.15;;;26.70;99.90;;;;;;5012326;28;20255;-66
2022/05/18 08:54:31;;;;;;;4.40;3.97;;;26.80;99.90;;;;;;5011619;28;20236;-65
2022/05/18 08:57:01;;;;;;;4.43;4.13;;;27.10;99.90;;;;;;5006032;28;20253;-66
2022/05/18 08:59:33;;;;;;;6.90;4.22;;;27.10;99.90;;;;;;5012646;28;20252;-65
2022/05/18 09:02:10;;;;;;;4.30;3.90;;;27.00;99.90;;;;;;5011983;28;20608;-65
2022/05/18 09:04:47;;;;;;;5.05;4.55;;;27.20;99.90;;;;;;5011975;28;20316;-65
2022/05/18 09:07:48;;;;;;;9.90;5.35;;;27.20;99.90;;;;;;5012199;28;20733;-66
2022/05/18 09:10:25;;;;;;;4.20;3.80;;;27.40;99.90;;;;;;4972968;28;20210;-65
2022/05/18 09:12:53;;;;;;;5.50;4.07;;;27.60;99.90;;;;;;4972445;28;20653;-65
2022/05/18 09:15:34;;;;;;;4.50;3.58;;;27.90;99.90;;;;;;4972799;28;20250;-67
2022/05/18 09:18:13;;;;;;;4.78;3.85;;;28.20;99.90;;;;;;4972872;28;20273;-65
2022/05/18 09:20:48;;;;;;;3.25;2.80;;;28.60;99.90;;;;;;4972996;28;20210;-65
2022/05/18 09:23:46;;;;;;;4.43;4.00;;;28.90;99.90;;;;;;4972107;28;20202;-67
2022/05/18 09:26:27;;;;;;;6.90;4.13;;;28.90;99.60;;;;;;4960804;28;20242;-65
2022/05/18 09:29:06;;;;;;;7.82;4.32;;;29.00;98.80;;;;;;4968592;28;20253;-66
2022/05/18 09:31:50;;;;;;;5.50;3.30;;;29.10;97.20;;;;;;4972786;28;20214;-65
2022/05/18 09:34:36;;;;;;;4.50;3.30;;;29.40;98.30;;;;;;4972195;28;20561;-65
2022/05/18 09:37:22;;;;;;;4.80;3.10;;;29.30;96.70;;;;;;4972114;28;20213;-65
2022/05/18 09:39:55;;;;;;;3.42;3.10;;;29.80;97.90;;;;;;4972362;28;20645;-65
2022/05/18 09:42:29;;;;;;;4.07;3.30;;;30.30;96.00;;;;;;4972035;28;20614;-66
2022/05/18 09:45:04;;;;;;;6.47;3.38;;;30.40;96.00;;;;;;4972581;28;20714;-66
2022/05/18 09:47:36;;;;;;;6.85;3.38;;;30.50;96.00;;;;;;4972286;28;20268;-65
2022/05/18 09:50:08;;;;;;;5.22;3.67;;;30.60;96.50;;;;;;4966509;28;20237;-65
2022/05/18 09:52:39;;;;;;;6.15;2.92;;;30.50;95.00;;;;;;4971661;28;20221;-65
2022/05/18 09:55:09;;;;;;;5.88;3.85;;;30.30;94.80;;;;;;4972621;28;20984;-65
2022/05/18 09:57:44;;;;;;;3.15;2.95;;;30.00;94.80;;;;;;4972495;28;20195;-65
2022/05/18 10:00:15;;;;;;;4.82;4.10;;;29.80;96.40;;;;;;4972295;28;20229;-65
2022/05/18 10:08:23;;;;;;;7.60;3.40;;;30.60;94.90;;;;;;4974387;28;20291;-65
2022/05/18 10:10:56;;;;;;;5.55;2.75;;;30.70;95.40;;;;;;5010656;28;20205;-65
2022/05/18 10:13:28;;;;;;;4.13;3.53;;;30.70;95.00;;;;;;5010840;28;20204;-65
2022/05/18 10:16:18;;;;;;;4.05;3.28;;;31.10;93.20;;;;;;5011077;28;20248;-66
2022/05/18 10:18:51;;;;;;;3.25;2.50;;;31.30;93.40;;;;;;5004870;28;20320;-65
2022/05/18 10:21:24;;;;;;;4.88;3.40;;;31.20;93.10;;;;;;5011126;28;20240;-65
2022/05/18 10:24:02;;;;;;;5.03;3.38;;;30.90;93.10;;;;;;5010340;28;20209;-66
2022/05/18 10:26:32;;;;;;;4.75;3.17;;;30.90;93.00;;;;;;5010962;28;20236;-66
2022/05/18 10:29:02;;;;;;;5.20;3.00;;;30.70;93.30;;;;;;5011010;28;20233;-65
2022/05/18 10:31:34;;;;;;;3.17;2.88;;;31.00;93.50;;;;;;5011038;28;20209;-67
2022/05/18 10:34:23;;;;;;;4.45;2.70;;;31.20;93.90;;;;;;5010639;28;20240;-65
2022/05/18 10:36:53;;;;;;;3.78;2.60;;;31.60;92.90;;;;;;5004162;28;20252;-66
2022/05/18 10:39:40;;;;;;;4.43;2.78;;;31.60;92.50;;;;;;5005024;28;20643;-66
2022/05/18 10:42:21;;;;;;;3.78;2.90;;;31.50;91.70;;;;;;5009985;28;20201;-65
2022/05/18 10:44:49;;;;;;;2.55;2.35;;;31.60;91.60;;;;;;5010941;28;20252;-65
2022/05/18 10:47:26;;;;;;;3.60;2.90;;;31.80;90.60;;;;;;5010723;28;20259;-65
2022/05/18 10:50:27;;;;;;;3.30;1.92;;;32.20;90.50;;;;;;5010623;28;21074;-65
2022/05/18 10:53:00;;;;;;;3.50;2.27;;;32.60;90.10;;;;;;5009929;28;20209;-66
2022/05/18 10:55:31;;;;;;;4.80;2.75;;;32.50;88.00;;;;;;5010690;28;20619;-65
2022/05/18 10:58:03;;;;;;;5.57;2.53;;;32.30;87.40;;;;;;5010671;28;20769;-65
2022/05/18 11:00:41;;;;;;;2.80;2.60;;;32.50;88.00;;;;;;5010990;28;20217;-65
2022/05/18 11:03:15;;;;;;;2.40;2.20;;;32.40;85.90;;;;;;5003667;28;20236;-66
2022/05/18 11:05:48;;;;;;;3.00;2.55;;;32.70;87.10;;;;;;5010472;28;20650;-66
2022/05/18 11:08:21;;;;;;;2.70;2.50;;;32.80;86.20;;;;;;5005039;28;20273;-65
2022/05/18 11:10:58;;;;;;;2.23;2.13;;;32.40;85.80;;;;;;5010724;28;20666;-65
2022/05/18 11:13:37;;;;;;;4.30;2.57;;;32.60;89.50;;;;;;5009850;28;20674;-66
2022/05/18 11:16:15;;;;;;;3.20;1.93;;;32.90;86.60;;;;;;5010532;28;20619;-67
2022/05/18 11:18:48;;;;;;;2.40;2.20;;;33.10;84.90;;;;;;5010612;28;20674;-66
2022/05/18 11:21:26;;;;;;;2.27;2.07;;;33.20;86.10;;;;;;5011104;28;20209;-66
2022/05/18 11:24:06;;;;;;;5.03;2.50;;;33.40;84.40;;;;;;5013170;28;20607;-66
2022/05/18 11:26:44;;;;;;;4.33;2.50;;;33.40;84.00;;;;;;5013810;28;20725;-64
2022/05/18 11:29:26;;;;;;;3.63;2.20;;;33.50;84.30;;;;;;5014036;28;21020;-65
2022/05/18 11:32:07;;;;;;;2.50;2.30;;;34.00;83.50;;;;;;5007461;28;20611;-67
2022/05/18 11:34:46;;;;;;;4.77;3.03;;;34.60;82.00;;;;;;5014016;28;20651;-65
2022/05/18 11:37:28;;;;;;;4.73;2.30;;;34.40;82.50;;;;;;5013569;28;20654;-65
2022/05/18 11:40:06;;;;;;;2.87;2.67;;;34.00;82.80;;;;;;5013642;28;20694;-66
2022/05/18 11:42:49;;;;;;;2.10;1.90;;;34.50;81.10;;;;;;5006660;28;21231;-65
2022/05/18 11:45:27;;;;;;;5.47;3.10;;;34.70;79.60;;;;;;5013483;28;21172;-66
2022/05/18 11:48:10;;;;;;;4.03;2.27;;;34.70;80.30;;;;;;5013767;28;20717;-65
2022/05/18 11:50:51;;;;;;;3.60;2.37;;;34.80;80.10;;;;;;5013636;28;20623;-66
2022/05/18 11:53:33;;;;;;;2.67;2.47;;;34.60;80.20;;;;;;5012845;28;20694;-65
2022/05/18 11:56:14;;;;;;;2.40;2.20;;;34.80;78.70;;;;;;5013498;28;21006;-66
2022/05/18 11:59:23;;;;;;;3.30;2.57;;;34.70;82.70;;;;;;5013398;28;20693;-65
2022/05/18 12:02:00;;;;;;;2.83;2.47;;;34.70;79.20;;;;;;5013525;28;20634;-65
2022/05/18 12:04:49;;;;;;;3.97;2.90;;;34.20;79.20;;;;;;5013454;28;20661;-66
2022/05/18 12:07:34;;;;;;;2.30;2.13;;;34.30;82.20;;;;;;5012510;28;20699;-67
2022/05/18 12:10:19;;;;;;;3.90;2.70;;;34.20;78.60;;;;;;5012975;28;20713;-65
2022/05/18 12:12:57;;;;;;;2.80;2.50;;;33.60;80.80;;;;;;5012599;28;21057;-65
2022/05/18 12:15:35;;;;;;;2.40;2.20;;;33.30;79.10;;;;;;5013177;28;21392;-65
2022/05/18 12:18:06;;;;;;;3.30;2.00;;;32.90;79.60;;;;;;5012899;28;20714;-64
2022/05/18 12:20:39;;;;;;;2.50;2.30;;;32.10;81.00;;;;;;5013306;28;20681;-66
2022/05/18 12:23:10;;;;;;;6.60;2.30;;;31.90;82.50;;;;;;5012285;28;20690;-65
2022/05/18 12:25:39;;;;;;;2.93;2.33;;;32.20;81.30;;;;;;5012748;28;20248;-66
2022/05/18 12:28:09;;;;;;;2.57;2.30;;;32.30;81.10;;;;;;5012798;28;20682;-65
2022/05/18 12:30:40;;;;;;;14.83;3.07;;;32.30;82.30;;;;;;5013217;28;20627;-66
2022/05/18 12:33:10;;;;;;;4.50;3.20;;;32.30;80.70;;;;;;5011795;28;20615;-65
2022/05/18 12:35:49;;;;;;;3.63;2.20;;;32.80;81.20;;;;;;5012569;28;21168;-65
2022/05/18 12:38:24;;;;;;;4.10;2.53;;;33.40;80.90;;;;;;5010975;28;20683;-65
2022/05/18 12:40:55;;;;;;;2.73;2.53;;;33.90;80.30;;;;;;5012549;28;20642;-66
2022/05/18 12:43:27;;;;;;;3.03;2.73;;;34.30;80.80;;;;;;5012142;28;20616;-66
2022/05/18 12:46:03;;;;;;;2.80;2.60;;;34.70;80.50;;;;;;5006479;28;20656;-66
2022/05/18 12:48:43;;;;;;;3.63;2.70;;;35.40;80.30;;;;;;5012637;28;20697;-66
2022/05/18 12:51:16;;;;;;;2.77;2.50;;;35.90;76.60;;;;;;5012367;28;20731;-66
2022/05/18 12:54:00;;;;;;;3.57;2.30;;;36.10;76.20;;;;;;5011725;28;20623;-65
2022/05/18 12:56:50;;;;;;;3.43;2.17;;;36.30;74.40;;;;;;5012321;28;21024;-65
2022/05/18 12:59:22;;;;;;;2.40;2.20;;;36.80;74.90;;;;;;5012366;28;20653;-66
2022/05/18 13:02:00;;;;;;;3.03;2.80;;;36.90;74.50;;;;;;5012252;28;20662;-66
2022/05/18 13:04:41;;;;;;;2.40;2.20;;;36.70;74.90;;;;;;5012333;28;20622;-65
2022/05/18 13:07:30;;;;;;;2.60;2.40;;;36.90;73.50;;;;;;5009431;28;20743;-66
2022/05/18 13:10:13;;;;;;;3.10;2.30;;;37.00;72.40;;;;;;5011004;28;20684;-66
2022/05/18 13:12:46;;;;;;;3.97;2.17;;;36.20;73.20;;;;;;5008137;28;20620;-65
2022/05/18 13:15:38;;;;;;;2.50;2.30;;;35.70;71.00;;;;;;5012014;28;20667;-66
2022/05/18 13:18:14;;;;;;;2.20;1.90;;;35.60;75.70;;;;;;5011983;28;21005;-66
2022/05/18 13:20:56;;;;;;;3.80;2.00;;;35.70;70.10;;;;;;5012095;28;20615;-66
2022/05/18 13:23:40;;;;;;;4.70;2.30;;;36.10;71.70;;;;;;5008672;28;20639;-66
2022/05/18 13:26:21;;;;;;;2.10;1.90;;;35.70;72.50;;;;;;5009301;28;20681;-66
2022/05/18 13:28:50;;;;;;;2.27;1.60;;;35.90;70.60;;;;;;5010791;28;20655;-68
2022/05/18 13:31:19;;;;;;;2.80;1.97;;;35.70;70.20;;;;;;5008114;28;20637;-64
2022/05/18 13:33:53;;;;;;;1.87;1.77;;;36.00;69.30;;;;;;5007760;28;20620;-65